KCVG/CVG METAR and TAF weather

Enter ICAO airport designator
Station Type Date Time Source
KCVG METAR 2021/04/17 01:52 UTC NOAA

KCVG 170152Z 28004KT 10SM CLR 10/02 A2991 RMK AO2 SLP126 T01000017


Station Type Date Time Source
KCVG Decoded METAR 2021/04/17 01:52 UTC NOAA

CINCINNATI/NORTHERN KY INTERNATIONAL , KY, United States (KCVG) 39-03N 084-40W 269M
Apr 16, 2021 - 09:52 PM EDT / 2021.04.17 0152 UTC
Wind: from the W (280 degrees) at 5 MPH (4 KT):0
Visibility: 10 mile(s):0
Sky conditions: clear
Temperature: 50.0 F (10.0 C)
Dew Point: 35.1 F (1.7 C)
Relative Humidity: 56%
Pressure (altimeter): 29.91 in. Hg (1012 hPa)
ob: KCVG 170152Z 28004KT 10SM CLR 10/02 A2991 RMK AO2 SLP126 T01000017
cycle: 2

Station Type Date Time Source
KCVG TAF 2021/04/16 21:54 UTC NOAA

TAF
AMD KCVG 162053Z 1621/1724 29008KT P6SM FEW045
FM170100 32003KT P6SM SCT200
FM171400 28003KT P6SM VCSH BKN050
FM172200 29005KT P6SM SCT100

Example: see airport list